Aérodrome :
LOGIN :

S'inscrire | Disclaimer

   EN    FR    IT 

 










Légende :    VFR   VFR Marginal   IFR   IFR Intensif   IFR Très Intensif
Visi : 
Plafond : 
>= 8 km
>= 3000ft
5 à 8 km
1000 à 3000 ft
1500m à 5 km
500 à 1000 ft
800 à 1500m
200 à 500 ft
< 800m
< 200 ft
Symboles :   Orages  Brouillard  Fortes neiges  Fortes précipitations  Vent > 20 kt
SIGMETs :   Divers  Orages  Givrage  Turbulence  Onde Orograph.  Cendres Volcan.






- Altitude de l'aérodrome : 1197 ft
- Code IATA : SPM


ETAD - Spangdahlem Ab

DERNIER METAR :
  • 171526Z AUTO 20017G21KT 9999 SCT028 BKN035 BKN047 BKN060 08/03 A2997 RMK AO2 SLP147 $

METARs EXPIRÉS :
  • 171456Z AUTO 22016KT 9999 SCT032 BKN041 BKN060 09/03 A2997 RMK AO2 SLP147 T00850029 56006 $
  • 171426Z AUTO 21015KT 9999 SCT038 BKN050 09/03 A2997 RMK AO2 SLP147 $
  • 171356Z AUTO 22013G19KT 9999 SCT025 BKN035 08/04 A2997 RMK AO2 SLP147 T00820035 $
  • 171256Z AUTO 21012KT 9999 SCT021 BKN028 OVC040 08/04 A2998 RMK AO2 CIG 022V028 CIG 024 RWY05 CIG 027 RWY24 SLP151 T00770041 $

TAF TAF ETAD
Valide du 17 à 13h jusqu'au 18 à 19h UTC


171300Z 1713/1819 23010G15KT 9999 SCT025 BKN060 QNH2995INS
TEMPO 1713/1720 23012G25KT 9000 -SHRA BKN024 OVC060 610409
BECMG 1719/1720 24010G15KT 9999 BKN020 620359 QNH3000INS
TEMPO 1723/1805 8000 -RA BR BKN008 OVC016 TX08/1714Z TN04/1805Z



MET'MAP, la Météo Aéronautique d'un coup d'oeil ! - Copyright ORBIFLY Décembre 2007 - Disclaimer

ORBIFLY MET'MAP TEAM :

Programmation & Développement : Alexandra Zaïnal
Sur une idée originale de : Baudouin d'Aumeries
Assistance à la programmation : Marc-Olivier Méhu
Soutien technique & logistique : Manuel Goepfert

Contact : metmap@orbifly.com




SOURCES & CREDITS :

   NOAA